Flight Track Log - Related Links

Times and Time Zones

All times are in EST time to prevent confusion due to time zone crossing. See the N8088H flight status page for this flight to view local times or setup timezone preferences in your user account.

Time Position Orientation Groundspeed Altitude Reporting Facility
EST Latitude Longitude Course Direction KTS MPH feet Rate Location/Type
Sat 04:21:58 PM 30.5053 -87.1814 24° Northeast 100 115 900  Level Jacksonville Center
Sat 04:22:59 PM 30.5247 -87.1631 39° Northeast 102 117 1,600 639 Climbing Jacksonville Center
Sat 04:24:00 PM 30.5258 -87.1294 88° East 103 119 2,200 632 Climbing Jacksonville Center
Sat 04:25:12 PM 30.5125 -87.0925 113° Southeast 109 125 3,000 586 Climbing Jacksonville Center
Sat 04:26:13 PM 30.4925 -87.0628 128° Southeast 117 135 3,500 172 Climbing Jacksonville Center
Sat 05:00:11 PM 29.7128 -85.6450 122° Southeast 166 191 9,000 157 Climbing Jacksonville Center
Sat 05:01:00 PM 29.6686 -85.5742 122° Southeast  Level FlightAware Approximate
Sat 05:01:11 PM 29.6908 -85.6011 120° Southeast 166 191 9,000  Level Jacksonville Center
Sat 05:02:00 PM 29.6451 -85.5314 122° Southeast  Level FlightAware Approximate
Sat 05:02:11 PM 29.6647 -85.5550 123° Southeast 166 191 9,000  Level Jacksonville Center
Sat 05:03:00 PM 29.6215 -85.4887 122° Southeast  Level FlightAware Approximate
Sat 05:03:11 PM 29.6425 -85.5092 119° Southeast 166 191 9,000  Level Jacksonville Center
Sat 05:04:00 PM 29.5979 -85.4460 122° Southeast  Level FlightAware Approximate
Sat 05:04:11 PM 29.6183 -85.4703 126° Southeast 184 212 9,000  Level Jacksonville Center
Sat 05:05:11 PM 29.5942 -85.4267 123° Southeast 184 212 9,000  Level Jacksonville Center
Sat 05:06:11 PM 29.5681 -85.3806 123° Southeast 174 200 9,000  Level Jacksonville Center
Sat 05:07:11 PM 29.5458 -85.3347 119° Southeast 169 194 9,000  Level Jacksonville Center
Sat 05:08:11 PM 29.5217 -85.2911 122° Southeast 169 194 9,000  Level Jacksonville Center
Sat 05:09:11 PM 29.4975 -85.2475 122° Southeast 169 194 9,000  Level Jacksonville Center
Sat 05:10:11 PM 29.4731 -85.2042 123° Southeast 169 194 9,000  Level Jacksonville Center
Sat 05:11:11 PM 29.4469 -85.1581 123° Southeast 169 194 9,000  Level Jacksonville Center
Sat 05:12:11 PM 29.4225 -85.1147 123° Southeast 169 194 9,000  Level Jacksonville Center
Sat 05:13:11 PM 29.3983 -85.0711 122° Southeast 169 194 9,000  Level Jacksonville Center
Sat 05:14:11 PM 29.3742 -85.0231 120° Southeast 174 200 9,000  Level Jacksonville Center
Sat 05:15:11 PM 29.3497 -84.9794 123° Southeast 174 200 9,000  Level Jacksonville Center
Sat 05:16:11 PM 29.3253 -84.9339 122° Southeast 174 200 9,000  Level Jacksonville Center
Sat 05:17:11 PM 29.3011 -84.8906 123° Southeast 174 200 9,000  Level Jacksonville Center
Sat 05:18:11 PM 29.2767 -84.8447 121° Southeast 174 200 9,000  Level Jacksonville Center
Sat 05:19:11 PM 29.2503 -84.8014 125° Southeast 174 200 9,000  Level Jacksonville Center
Sat 05:20:11 PM 29.2258 -84.7581 123° Southeast 174 200 9,000 -50 Level Jacksonville Center
Sat 05:21:11 PM 29.2036 -84.7125 119° Southeast 174 200 8,900 -50 Descending Jacksonville Center
Sat 05:22:11 PM 29.1769 -84.6692 125° Southeast 168 193 8,900  Level Jacksonville Center
Sat 05:23:11 PM 29.1544 -84.6283 122° Southeast 168 193 8,900  Level Jacksonville Center
Sat 05:24:11 PM 29.1300 -84.5850 123° Southeast 168 193 8,900  Level Jacksonville Center
Sat 05:25:11 PM 29.1056 -84.5419 123° Southeast 168 193 8,900  Level Jacksonville Center
Sat 05:26:11 PM 29.0811 -84.4986 123° Southeast 168 193 8,900  Level Jacksonville Center
Sat 05:27:11 PM 29.0586 -84.4533 120° Southeast 168 193 8,900  Level Jacksonville Center
Sat 05:28:11 PM 29.0342 -84.4100 123° Southeast 168 193 8,900  Level Jacksonville Center
Sat 05:29:11 PM 29.0075 -84.3669 125° Southeast 168 193 8,900  Level Jacksonville Center
Sat 05:30:11 PM 28.9850 -84.3217 120° Southeast 168 193 8,900  Level Jacksonville Center
Sat 05:31:11 PM 28.9606 -84.2783 123° Southeast 168 193 8,900  Level Jacksonville Center
Sat 05:32:11 PM 28.9381 -84.2378 122° Southeast 168 193 8,900  Level Jacksonville Center
Sat 05:33:11 PM 28.9114 -84.1922 124° Southeast 168 193 8,900  Level Jacksonville Center
Sat 05:34:11 PM 28.8867 -84.1494 123° Southeast 168 193 8,900  Level Jacksonville Center
Sat 05:35:11 PM 28.8581 -84.1017 124° Southeast 168 193 8,900  Level Jacksonville Center
Sat 05:36:11 PM 28.8353 -84.0586 121° Southeast 168 193 8,900  Level Jacksonville Center
Sat 05:37:11 PM 28.8108 -84.0133 122° Southeast 168 193 8,900  Level Jacksonville Center
Sat 05:38:11 PM 28.7861 -83.9706 123° Southeast 168 193 8,900  Level Jacksonville Center
Sat 05:39:11 PM 28.7636 -83.9275 121° Southeast 168 193 8,900  Level Jacksonville Center
Sat 05:40:11 PM 28.7367 -83.8822 124° Southeast 168 193 8,900  Level Jacksonville Center
Sat 05:41:11 PM 28.7142 -83.8394 121° Southeast 168 193 8,900  Level Jacksonville Center
Sat 05:42:11 PM 28.6872 -83.7942 124° Southeast 168 193 8,900  Level Jacksonville Center
Sat 05:43:11 PM 28.6625 -83.7492 122° Southeast 168 193 8,900  Level Jacksonville Center
Sat 05:44:11 PM 28.6378 -83.7064 123° Southeast 168 193 8,900  Level Jacksonville Center
Sat 05:45:11 PM 28.6150 -83.6636 121° Southeast 163 188 8,900  Level Jacksonville Center
Sat 05:46:11 PM 28.5903 -83.6208 123° Southeast 163 188 8,900  Level Jacksonville Center
Sat 05:47:11 PM 28.5633 -83.5756 124° Southeast 168 193 8,900  Level Jacksonville Center
Sat 05:48:11 PM 28.5406 -83.5331 121° Southeast 168 193 8,900  Level Jacksonville Center
Sat 05:49:11 PM 28.5158 -83.4903 123° Southeast 168 193 8,900 -100 Level Jacksonville Center
Sat 05:50:11 PM 28.4889 -83.4478 126° Southeast 161 185 8,700 -482 Descending Jacksonville Center
Sat 05:52:30 PM 28.4167 -83.3333 126° Southeast 183 211 7,300 -513 Descending Tampa TRACON
Sat 05:53:30 PM 28.4000 -83.2833 111° Southeast 176 203 7,000 -150 Descending Tampa TRACON
Sat 05:54:30 PM 28.3667 -83.2500 139° Southeast 154 177 7,000  Level Tampa TRACON
Sat 05:55:36 PM 28.3500 -83.2000 111° Southeast 153 176 7,000  Level Tampa TRACON
Sat 05:56:37 PM 28.3333 -83.1500 111° Southeast 151 174 7,000  Level Tampa TRACON
Sat 05:57:37 PM 28.3000 -83.1167 139° Southeast 152 175 7,000  Level Tampa TRACON
Sat 05:58:36 PM 28.2833 -83.0833 120° Southeast 153 176 7,000 -202 Level Tampa TRACON
Sat 05:59:36 PM 28.2500 -83.0333 127° Southeast 160 184 6,600 -417 Descending Tampa TRACON
Sat 06:00:31 PM 28.2333 -83.0000 120° Southeast 173 199 6,200 -470 Descending Tampa TRACON
Sat 06:01:31 PM 28.2000 -82.9500 127° Southeast 176 203 5,700 -600 Descending Tampa TRACON
Sat 06:02:31 PM 28.1833 -82.9000 111° Southeast 173 199 5,000 -650 Descending Tampa TRACON
Sat 06:03:31 PM 28.1500 -82.8500 127° Southeast 169 194 4,400 -600 Descending Tampa TRACON
Sat 06:04:31 PM 28.1167 -82.8167 139° Southeast 167 192 3,800 -524 Descending Tampa TRACON
Sat 06:05:37 PM 28.0833 -82.7833 139° Southeast 161 185 3,300 -381 Descending Tampa TRACON
Sat 06:06:37 PM 28.0500 -82.7667 156° South 157 181 3,000 -150 Descending Tampa TRACON
Sat 06:07:37 PM 28.0167 -82.7333 139° Southeast 141 162 3,000  Level Tampa TRACON
Sat 06:08:37 PM 28.0000 -82.7000 120° Southeast 139 160 3,000 -50 Level Tampa TRACON
Sat 06:09:37 PM 27.9833 -82.6500 111° Southeast 135 155 2,900 -50 Descending Tampa TRACON
Sat 06:10:37 PM 27.9667 -82.6167 120° Southeast 127 146 2,900 50 Level Tampa TRACON
Sat 06:11:37 PM 27.9667 -82.5833 90° East 117 135 3,000 53 Climbing Tampa TRACON
Sat 06:12:31 PM 27.9667 -82.5500 90° East 116 133 3,000 -316 Level Tampa TRACON
Sat 06:13:31 PM 27.9667 -82.5000 90° East 126 145 2,400 -600 Descending Tampa TRACON

Login

Don't have an account? Register now (free) for customized features, flight alerts, and more!